Accueil
METAR-TAF:

METAR-TAF

Aéroports :

Aéroport international Léopold-Sédar-Senghor

Dakar, Sénégal

latitude: 14-44N, longitude: 017-30W, altitude: 27 m

Observation

Le bulletin a été fait il y a 32 minutes, à 04:00 UTC
Vent 8 kt de sud-ouest
Température 27°C
Humidité 74%
Pression 1010 hPa
Visibilité 10 km ou plus
Quelques nuages à une hauteur de 1100 ft

METAR: GOOY 110400Z 22008KT 9999 FEW011 27/22 Q1010

Heure: 04:32 (04:32 UTC)

Prévision

Le bulletin a été fait il y a 5 heures et 2 minutes, à 23:30 UTC
Prévision valable du 11 à 00 UTC au 12 à 06 UTC
Vent 8 kt de ouest/nord-ouest
Visibilité 10 km ou plus
Nuages épars à une hauteur de 1300 ft
Probabilité 30% :
Temporairement
du 11 à 04 UTC au 11 à 08 UTC
Visibilité: 4800 m
Nuages fragmentés à une hauteur de 1300 ft
Quelques nuages à une hauteur de 2500 ft, Cumulonimbus.
orage, pluie

TAF: GOOY 102330Z 1100/1206 29008KT 9999 SCT013 PROB30 TEMPO 1104/1108 4800 TSRA BKN013 FEW025CB

Observations et prévisions météorologiques de plus de 4000 aéroports (messages METAR et TAF).

Les stations disponibles sont représentées par des disques jaunes et rouges sur la carte.

Passer la souris dessus pour voir le nom de la station.

Cliquer dessus pour voir les observations et prévisions météorologiques.

Pour changer de carte: cliquez sur les boutons verts avec une croix noire pour zoomer, sur le bouton vert avec un tiret pour effectuer un zoom arrière, ou sur les flèches vertes pour les cartes adjacentes.


METAR-TAF: